Moyenne distance précédant Nationale Nord-Est 2016 Moissey (39) - E

Date : 09/04/2016

Place Nom Licence Catégorie Club Temps CN à J-60 Points Différence Nouveau CN
1 TAILLANDIER Guy 1583 H70 0801CA 0:24:25 5038 5692 +654 5331
2 EGGLI Roland 5938 H70 6803AL 0:29:48 4486 4664 +178 4603
3 VAGNER Christine 3651 D60 5702LO 0:32:03 4088 4336 +248 3714
4 GOLMARD Christian 2669 H70 3801RA 0:32:27 4221 4283 +62 4271
5 MOUGEL Gabriel 3303 H70 8809LO 0:33:22 4171 4165 -6 3496
6 ABISSE Jacques 703 H70 2508FC 0:33:41 4219 4126 -93 4098
7 ROBERT Christian 1086 H70 7004FC 0:34:06 4139 4076 -63 4247
8 GATY Daniele 841 D60 4203RA 0:34:56 3922 3978 +56 3961
9 PETIT Guyonne 4372 D60 7808IF 0:35:01 4464 3969 -495 4424
10 ANNE Brigitte 1672 D65 0111RA 0:35:40 3926 3896 -30 4111
11 VILLEDIEU Martine 13752 D60 4201RA 0:37:31 3634 3704 +70 3774
12 RICHARD Nicole 14245 D65 0207PI 0:38:01 3540 3656 +116 3541
13 VOGT Claude 2558 H70 6709AL 0:39:04 3495 3557 +62 3662
14 PAOLUCCI Christiane 4378 D60 5703LO 0:39:40 3074 3504 +430 2978
15 DEVILLE Nelly 2401 D65 5402LO 0:40:13 3756 3456 -300 3792
16 KENANE Abdelkader 1448 H75 5501LO 0:41:12 3949 3373 -576 3621
17 ROBERT Martine 1087 D65 7004FC 0:43:40 3620 3183 -437 3695
18 BONNET Christine 2400 D60 5402LO 0:43:49 4419 3172 -1247 4419
19 CHALOPIN Catherine 3674 D65 2105BO 0:44:57 3485 3092 -393 3476
20 AST Norbert 2512 H70 8809LO 0:45:07 2764 3080 +316 1806
21 EGGLI Margrit 27392 D65 6803AL 0:46:41 3628 2977 -651 3552
22 CERET Martine 4597 D60 4203RA 0:46:44 2902 2974 +72 2914
23 GROSJEAN Pierre 12354 H75 6913RA 0:46:55 2871 2962 +91 2850
24 PIGER Albert 116 H75 4504CE 0:47:40 2571 2916 +345 2802
25 JEANPIERRE M-Therese 3302 D70 8809LO 0:49:37 2839 2801 -38 2999
26 MOULIERE M-Bernadette 2888 D70 0207PI 0:52:55 2961 2626 -335 2921
27 BENACEK Vaclav 2368 H70 6806AL 0:53:07 3627 2616 -1011 3516
28 FISCHER Christiane 27627 D65 6803AL 0:54:15 2043 2562 +519 2285
29 GOLMARD Chantal 2668 D60 2101BO 0:54:24 3314 2555 -759 3304
30 TINCHANT Jean-Marc 746 H70 2517FC 0:55:07 3142 2521 -621 3089
31 MONTANARI Colette 2533 D65 5703LO 0:56:09 3039 2475 -564 3043
32 BAUDRY J-Claude 1693 H70 1705PC 0:57:51 3184 2402 -782 3119
33 ABISSE Gisele 701 D70 2508FC 0:58:33 2812 2374 -438 2829
34 MOUGEL Danielle 7910 D65 8809LO 0:58:49 2426 2363 -63 1891
35 KIEFFER Mireille 2680 D65 2101BO 0:59:05 2243 2352 +109 2247
36 RIFFARD J-Claude 2445 H75 5702LO 1:00:02 3301 2315 -986 3086
37 LOISY Sylvie 25576 D60 2104BO 1:03:04 2918 2204 -714 2998
38 PIGER Ghislaine 117 D75 4504CE 1:03:28 1991 2190 +199 2119
39 RUAUD Agnes 739 D65 2508FC 1:04:54 1984 2141 +157 2083
40 DENIS Martine 12377 D70 9404IF 1:06:43 2554 2083 -471 2521
41 OUDIN M-Reine 7574 D65 6804AL 1:06:49 3211 2080 -1131 3206
42 LEMERCIER Jocelyne 2474 D65 5407LO 1:09:02 2453 2013 -440 2396
43 ETIENNE Bernadette 15324 D65 8807LO 1:10:05 2844 1983 -861 2844
44 POGU Paulette 4671 D65 5402LO 1:11:49 2581 1935 -646 2513
45 BERION Marie-Josephe 23056 D60 2508FC 1:12:45 2277 1910 -367 2390
46 LABBE Joelle 32574 D45 2104BO 1:13:06 1901 1825
47 ANTOINE Regis 1276 H75 7108BO 1:13:55 3022 1880 -1142 3211
48 GROSJEAN A-Marie 12059 D75 6913RA 1:13:57 2264 1879 -385 2288
49 GIRARD Florence 22478 D45 2508FC 1:16:48 2219 1810 -409 2219
50 LAURENT Therese 725 D80 2508FC 1:17:25 2162 1795 -367 2070
51 GUETIN Michel 2674 H80 2101BO 1:19:08 2012 1756 -256 2242
52 BASTIEN-FATH Nicole 8954 D70 5402LO 1:23:28 2342 1665 -677 2295
53 AST Claudine 2511 D70 8809LO 1:27:55 1840 1581 -259 1333
54 GUICHARDON Georges 570 H80 4504CE 1:41:54 1364 1223
55 DINET Robert 16987 H75 2101BO 1:42:12 1487 1360 -127 1353
56 CAU Martine 10313 D60 4504CE 1:47:26 1793 1294 -499 1819
57 LUDEWIG-JAMES Carol 15894 D75 5907NO 1:56:11 1203 1196 -7 1424
58 FEHLEN Jacqueline 20808 D70 5407LO 1:56:58 637 1188 +551 815
SIMONET Jean 930 H70 7707IF pm 4163 0 4227
DUBROCA Monique 633 D65 3308AQ pm 4155 0 4177
JOUBERT JEAN-PAUL 27566 H70 2101BO pm 0 0 0